createdAt,value
2017-08-01T00:01:09.258Z,9.73
2017-08-01T00:03:44.345Z,7.40
2017-08-01T00:06:18.915Z,7.70
2017-08-01T00:08:53.361Z,7.03
2017-08-01T00:11:27.807Z,9.32
2017-08-01T00:14:02.449Z,6.55
2017-08-01T00:16:36.959Z,8.52
2017-08-01T00:19:11.474Z,8.90
2017-08-01T00:21:45.897Z,10.85
2017-08-01T00:24:21.113Z,6.82
2017-08-01T00:26:55.652Z,6.85
2017-08-01T00:29:30.048Z,6.32
2017-08-01T00:32:04.693Z,10.10
2017-08-01T00:34:39.225Z,8.82
2017-08-01T00:37:13.652Z,6.55
2017-08-01T00:39:48.962Z,7.00
2017-08-01T00:42:23.724Z,6.47
2017-08-01T00:44:58.245Z,5.90
2017-08-01T00:47:32.585Z,5.90
2017-08-01T00:50:07.015Z,6.97
2017-08-01T00:52:41.329Z,5.47
2017-08-01T00:55:15.837Z,9.45
2017-08-01T00:57:50.312Z,5.93
2017-08-01T01:00:24.673Z,5.82
2017-08-01T01:02:59.093Z,7.93
2017-08-01T01:05:33.588Z,8.07
2017-08-01T01:08:08.228Z,6.25
2017-08-01T01:10:42.709Z,7.07
2017-08-01T01:13:17.246Z,14.43
2017-08-01T01:15:51.773Z,15.20
2017-08-01T01:18:26.997Z,9.68
2017-08-01T01:21:01.522Z,8.48
2017-08-01T01:23:35.989Z,8.95
2017-08-01T01:26:10.357Z,11.73
2017-08-01T01:28:45.502Z,8.52
2017-08-01T01:31:19.918Z,9.98
2017-08-01T01:33:54.377Z,8.77
2017-08-01T01:36:28.649Z,10.40
2017-08-01T01:39:03.089Z,7.40
2017-08-01T01:41:37.449Z,7.25
2017-08-01T01:44:11.964Z,8.10
2017-08-01T01:46:46.417Z,10.70
2017-08-01T01:49:20.909Z,12.35
2017-08-01T01:51:55.379Z,22.80
2017-08-01T01:54:29.877Z,27.75
2017-08-01T01:57:05.125Z,27.90
2017-08-01T01:59:39.542Z,23.25
2017-08-01T02:02:13.841Z,20.95
2017-08-01T02:04:48.342Z,33.13
2017-08-01T02:07:22.825Z,14.77
2017-08-01T02:09:57.408Z,17.80
2017-08-01T02:12:31.719Z,21.35
2017-08-01T02:15:06.078Z,21.30
2017-08-01T02:17:40.417Z,11.15
2017-08-01T02:20:14.909Z,11.65
2017-08-01T02:22:49.452Z,9.55
2017-08-01T02:25:23.889Z,7.60
2017-08-01T02:27:58.429Z,8.02
2017-08-01T02:30:33.693Z,6.62
2017-08-01T02:33:08.160Z,6.95
2017-08-01T02:35:42.929Z,7.10
2017-08-01T02:38:17.397Z,6.10
2017-08-01T02:40:51.837Z,6.72
2017-08-01T02:43:27.049Z,5.28
2017-08-01T02:46:01.694Z,6.53
2017-08-01T02:48:36.787Z,7.47
2017-08-01T02:51:11.555Z,10.25
2017-08-01T02:53:46.071Z,6.57
2017-08-01T02:56:20.449Z,5.12
2017-08-01T02:58:54.769Z,5.47
2017-08-01T03:01:29.948Z,5.60
2017-08-01T03:04:04.451Z,7.03
2017-08-01T03:06:38.993Z,6.35
2017-08-01T03:09:13.340Z,8.80
2017-08-01T03:11:47.929Z,9.32
2017-08-01T03:14:22.309Z,7.32
2017-08-01T03:16:56.801Z,8.82
2017-08-01T03:19:31.284Z,8.40
2017-08-01T03:22:06.528Z,10.52
2017-08-01T03:24:41.041Z,8.93
2017-08-01T03:27:16.601Z,9.43
2017-08-01T03:29:51.693Z,10.02
2017-08-01T03:32:26.181Z,9.15
2017-08-01T03:35:01.458Z,7.62
2017-08-01T03:37:35.989Z,15.52
2017-08-01T03:40:10.521Z,7.15
2017-08-01T03:42:44.942Z,8.10
2017-08-01T03:45:19.321Z,9.45
2017-08-01T03:47:53.814Z,10.95
2017-08-01T03:50:28.466Z,7.53
2017-08-01T03:53:03.028Z,7.03
2017-08-01T03:55:37.445Z,9.90
2017-08-01T03:58:12.078Z,7.40
2017-08-01T04:00:46.486Z,7.57
2017-08-01T04:03:20.941Z,6.55
2017-08-01T04:05:55.389Z,7.80
2017-08-01T04:08:29.782Z,8.98
2017-08-01T04:11:04.116Z,8.45
2017-08-01T04:13:38.785Z,7.30
2017-08-01T04:16:13.894Z,6.75
2017-08-01T04:18:48.669Z,8.55
2017-08-01T04:21:23.035Z,5.60
2017-08-01T04:23:57.685Z,11.65
2017-08-01T04:26:32.150Z,8.48
2017-08-01T04:29:06.560Z,8.35
2017-08-01T04:31:41.065Z,6.78
2017-08-01T04:34:15.401Z,7.57
2017-08-01T04:36:49.793Z,9.13
2017-08-01T04:39:24.351Z,6.43
2017-08-01T04:41:58.708Z,7.28
2017-08-01T04:44:57.909Z,10.48
2017-08-01T04:47:32.269Z,9.15
2017-08-01T04:50:07.001Z,7.00
2017-08-01T04:52:41.489Z,6.55
2017-08-01T04:55:16.010Z,7.22
2017-08-01T04:57:50.336Z,7.25
2017-08-01T05:00:25.075Z,8.68
2017-08-01T05:02:59.359Z,10.75
2017-08-01T05:05:33.701Z,9.52
2017-08-01T05:08:08.179Z,10.52
2017-08-01T05:10:43.646Z,10.50
2017-08-01T05:13:17.984Z,9.30
2017-08-01T05:15:52.440Z,9.25
2017-08-01T05:18:26.769Z,17.25
2017-08-01T05:21:01.125Z,8.88
2017-08-01T05:23:35.503Z,10.60
2017-08-01T05:26:09.959Z,9.25
2017-08-01T05:28:44.385Z,9.38
2017-08-01T05:31:19.012Z,12.98
2017-08-01T05:33:54.243Z,10.07
2017-08-01T05:36:28.732Z,11.45
2017-08-01T05:39:03.134Z,9.20
2017-08-01T05:41:37.525Z,9.15
2017-08-01T05:44:11.821Z,10.27
2017-08-01T05:46:46.161Z,11.45
2017-08-01T05:49:21.361Z,9.60
2017-08-01T05:51:55.920Z,9.98
2017-08-01T05:54:30.242Z,9.60
2017-08-01T05:57:05.643Z,9.15
2017-08-01T05:59:39.960Z,10.93
2017-08-01T06:02:14.352Z,10.98
2017-08-01T06:04:48.714Z,9.57
2017-08-01T06:07:23.049Z,9.38
2017-08-01T06:09:58.361Z,9.27
2017-08-01T06:12:33.702Z,9.00
2017-08-01T06:15:08.169Z,12.52
2017-08-01T06:17:42.769Z,9.98
2017-08-01T06:20:17.196Z,8.90
2017-08-01T06:22:51.646Z,8.23
2017-08-01T06:25:26.154Z,10.82
2017-08-01T06:28:01.404Z,9.90
2017-08-01T06:30:35.786Z,10.93
2017-08-01T06:33:10.283Z,6.62
2017-08-01T06:35:46.081Z,6.45
2017-08-01T06:38:20.581Z,9.30
2017-08-01T06:40:55.047Z,6.07
2017-08-01T06:43:29.491Z,6.05
2017-08-01T06:46:03.944Z,5.07
2017-08-01T06:48:38.437Z,6.37
2017-08-01T06:51:12.799Z,5.50
2017-08-01T06:53:48.526Z,4.20
2017-08-01T06:56:23.079Z,4.40
2017-08-01T06:58:58.384Z,4.40
2017-08-01T07:01:32.924Z,4.50
2017-08-01T07:04:07.346Z,5.75
2017-08-01T07:06:41.703Z,3.97
2017-08-01T07:09:16.136Z,5.45
2017-08-01T07:11:51.478Z,4.27
2017-08-01T07:14:25.910Z,4.73
2017-08-01T07:17:00.664Z,4.60
2017-08-01T07:19:35.157Z,5.32
2017-08-01T07:22:09.605Z,5.60
2017-08-01T07:24:44.043Z,4.43
2017-08-01T07:27:18.429Z,3.97
2017-08-01T07:29:52.829Z,3.87
2017-08-01T07:32:27.357Z,3.55
2017-08-01T07:35:01.804Z,4.97
2017-08-01T07:37:36.092Z,4.93
2017-08-01T07:40:13.695Z,5.33
2017-08-01T07:42:47.972Z,6.80
2017-08-01T07:45:22.321Z,6.73
2017-08-01T07:47:56.706Z,3.17
2017-08-01T07:50:31.188Z,4.10
2017-08-01T07:53:05.666Z,3.27
2017-08-01T07:55:40.293Z,2.97
2017-08-01T07:58:15.425Z,2.83
2017-08-01T08:00:49.996Z,3.83
2017-08-01T08:03:24.439Z,7.00
2017-08-01T08:05:59.128Z,2.53
2017-08-01T08:08:33.499Z,3.53
2017-08-01T08:11:07.844Z,3.40
2017-08-01T08:13:42.335Z,3.90
2017-08-01T08:16:17.425Z,2.07
2017-08-01T08:18:51.817Z,6.93
2017-08-01T08:21:26.293Z,3.70
2017-08-01T08:24:00.649Z,3.70
2017-08-01T08:26:35.815Z,4.17
2017-08-01T08:29:10.265Z,2.93
2017-08-01T08:31:44.920Z,4.20
2017-08-01T08:34:19.465Z,4.17
2017-08-01T08:36:53.966Z,3.03
2017-08-01T08:39:28.441Z,4.07
2017-08-01T08:42:02.920Z,3.97
2017-08-01T08:44:37.569Z,6.30
2017-08-01T08:47:12.786Z,3.53
2017-08-01T08:49:47.168Z,3.63
2017-08-01T08:52:21.647Z,2.37
2017-08-01T08:54:56.168Z,3.13
2017-08-01T08:57:30.684Z,2.50
2017-08-01T09:00:05.082Z,3.03
2017-08-01T09:02:39.582Z,2.60
2017-08-01T09:05:14.027Z,3.33
2017-08-01T09:07:48.490Z,3.63
2017-08-01T09:10:22.761Z,3.13
2017-08-01T09:12:57.275Z,6.33
2017-08-01T09:15:31.790Z,3.60
2017-08-01T09:18:06.201Z,5.13
2017-08-01T09:20:40.670Z,4.03
2017-08-01T09:23:15.902Z,2.60
2017-08-01T09:25:51.013Z,4.50
2017-08-01T09:28:25.550Z,2.40
2017-08-01T09:31:00.081Z,7.87
2017-08-01T09:33:34.416Z,3.80
2017-08-01T09:36:08.801Z,2.73
2017-08-01T09:38:43.294Z,2.27
2017-08-01T09:41:17.690Z,2.27
2017-08-01T09:43:52.193Z,4.13
2017-08-01T09:46:26.526Z,4.33
2017-08-01T09:49:00.894Z,5.20
2017-08-01T09:51:35.377Z,4.23
2017-08-01T09:54:10.665Z,2.37
2017-08-01T09:56:45.113Z,4.60
2017-08-01T09:59:19.712Z,2.50
2017-08-01T10:01:54.037Z,4.17
2017-08-01T10:04:28.617Z,3.70
2017-08-01T10:07:03.357Z,4.50
2017-08-01T10:09:37.880Z,4.97
2017-08-01T10:12:12.217Z,5.10
2017-08-01T10:14:46.693Z,3.33
2017-08-01T10:17:21.028Z,3.50
2017-08-01T10:19:56.276Z,2.87
2017-08-01T10:22:30.738Z,5.30
2017-08-01T10:25:05.137Z,3.80
2017-08-01T10:27:39.453Z,3.07
2017-08-01T10:30:13.885Z,3.40
2017-08-01T10:32:48.190Z,5.27
2017-08-01T10:35:22.496Z,4.33
2017-08-01T10:37:57.722Z,4.50
2017-08-01T10:40:32.382Z,7.10
2017-08-01T10:43:06.769Z,2.50
2017-08-01T10:45:41.516Z,2.77
2017-08-01T10:48:15.914Z,6.33
2017-08-01T10:50:51.537Z,2.27
2017-08-01T10:53:25.873Z,4.43
2017-08-01T10:56:00.580Z,3.70
2017-08-01T10:58:35.070Z,4.80
2017-08-01T11:01:09.517Z,3.20
2017-08-01T11:06:25.128Z,3.47
2017-08-01T11:08:59.489Z,3.60
2017-08-01T11:11:33.814Z,2.90
2017-08-01T11:14:08.121Z,4.20
2017-08-01T11:16:42.432Z,3.00
2017-08-01T11:19:17.640Z,2.33
2017-08-01T11:21:51.969Z,2.60
2017-08-01T11:24:26.497Z,2.97
2017-08-01T11:27:00.809Z,3.50
2017-08-01T11:29:35.286Z,6.93
2017-08-01T11:32:09.706Z,3.10
2017-08-01T11:34:44.361Z,4.03
2017-08-01T11:37:19.491Z,3.33
2017-08-01T11:39:53.977Z,2.53
2017-08-01T11:42:28.441Z,4.53
2017-08-01T11:45:04.803Z,4.63
2017-08-01T11:47:39.360Z,6.13
2017-08-01T11:50:14.050Z,2.93
2017-08-01T11:52:48.501Z,2.50
2017-08-01T11:55:22.952Z,3.10
2017-08-01T11:57:58.429Z,3.40
2017-08-01T12:00:32.914Z,2.53
2017-08-01T12:03:07.297Z,3.20
2017-08-01T12:05:41.714Z,2.33
2017-08-01T12:08:16.929Z,3.70
2017-08-01T12:10:51.518Z,4.53
2017-08-01T12:13:25.793Z,3.07
2017-08-01T12:16:00.300Z,5.13
2017-08-01T12:18:34.694Z,6.97
2017-08-01T12:21:09.001Z,4.47
2017-08-01T12:23:43.430Z,4.90
2017-08-01T12:26:17.844Z,2.97
2017-08-01T12:28:52.344Z,3.00
2017-08-01T12:31:26.762Z,4.93
2017-08-01T12:34:01.093Z,3.53
2017-08-01T12:36:35.481Z,3.10
2017-08-01T12:39:10.576Z,3.20
2017-08-01T12:41:44.917Z,3.67
2017-08-01T12:44:19.227Z,2.80
2017-08-01T12:46:53.962Z,2.67
2017-08-01T12:49:28.257Z,2.10
2017-08-01T12:52:02.809Z,2.20
2017-08-01T12:54:40.354Z,3.50
2017-08-01T12:57:14.704Z,5.97
2017-08-01T12:59:49.145Z,2.87
2017-08-01T13:02:23.754Z,2.73
2017-08-01T13:04:58.110Z,5.60
2017-08-01T13:07:32.573Z,2.20
2017-08-01T13:10:06.997Z,3.10
2017-08-01T13:12:41.308Z,2.70
2017-08-01T13:15:15.729Z,2.23
2017-08-01T13:17:50.066Z,2.10
2017-08-01T13:20:24.434Z,3.10
2017-08-01T13:22:59.417Z,3.47
2017-08-01T13:25:33.753Z,4.33
2017-08-01T13:28:08.265Z,5.00
2017-08-01T13:30:42.533Z,4.30
2017-08-01T13:33:16.875Z,3.83
2017-08-01T13:35:51.265Z,5.63
2017-08-01T13:38:25.716Z,2.33
2017-08-01T13:41:00.098Z,2.50
2017-08-01T13:43:34.477Z,6.43
2017-08-01T13:46:08.760Z,2.40
2017-08-01T13:48:43.127Z,2.93
2017-08-01T13:51:17.605Z,1.97
2017-08-01T13:53:52.172Z,2.60
2017-08-01T13:56:27.739Z,4.43
2017-08-01T13:59:02.474Z,4.20
2017-08-01T14:01:36.797Z,4.33
2017-08-01T14:04:11.265Z,3.10
2017-08-01T14:06:45.714Z,2.10
2017-08-01T14:09:20.352Z,3.37
2017-08-01T14:11:55.648Z,2.67
2017-08-01T14:14:29.962Z,4.27
2017-08-01T14:17:04.283Z,3.43
2017-08-01T14:19:39.509Z,3.07
2017-08-01T14:22:14.722Z,3.10
2017-08-01T14:24:49.209Z,3.10
2017-08-01T14:27:23.684Z,4.17
2017-08-01T14:29:58.966Z,3.33
2017-08-01T14:32:33.440Z,3.03
2017-08-01T14:35:07.923Z,3.13
2017-08-01T14:37:42.249Z,7.00
2017-08-01T14:40:16.773Z,3.37
2017-08-01T14:42:52.019Z,5.03
2017-08-01T14:45:26.336Z,4.40
2017-08-01T14:48:00.778Z,3.47
2017-08-01T14:50:35.262Z,4.57
2017-08-01T14:53:09.589Z,2.50
2017-08-01T14:55:44.176Z,3.63
2017-08-01T14:58:18.509Z,2.90
2017-08-01T15:00:53.034Z,2.83
2017-08-01T15:03:27.359Z,2.70
2017-08-01T15:06:01.850Z,4.50
2017-08-01T15:08:36.141Z,5.23
2017-08-01T15:11:10.473Z,3.13
2017-08-01T15:13:44.793Z,2.90
2017-08-01T15:16:19.112Z,3.50
2017-08-01T15:18:53.385Z,4.03
2017-08-01T15:21:27.861Z,3.03
2017-08-01T15:24:02.281Z,3.55
2017-08-01T15:26:36.782Z,4.30
2017-08-01T15:29:11.974Z,3.53
2017-08-01T15:31:47.142Z,5.20
2017-08-01T15:34:21.542Z,2.73
2017-08-01T15:36:55.927Z,3.30
2017-08-01T15:39:30.376Z,3.90
2017-08-01T15:42:04.820Z,4.35
2017-08-01T15:44:39.320Z,3.65
2017-08-01T15:47:13.820Z,4.82
2017-08-01T15:49:48.188Z,2.92
2017-08-01T15:52:22.582Z,5.03
2017-08-01T15:54:57.152Z,3.77
2017-08-01T15:57:31.644Z,4.73
2017-08-01T16:00:06.311Z,4.27
2017-08-01T16:02:40.730Z,6.40
2017-08-01T16:05:15.091Z,3.70
2017-08-01T16:07:49.634Z,4.40
2017-08-01T16:10:24.140Z,5.27
2017-08-01T16:12:59.261Z,3.83
2017-08-01T16:15:33.572Z,4.90
2017-08-01T16:18:08.106Z,3.23
2017-08-01T16:20:42.523Z,4.23
2017-08-01T16:23:17.245Z,7.45
2017-08-01T16:25:51.718Z,4.00
2017-08-01T16:28:26.226Z,3.20
2017-08-01T16:31:00.721Z,5.37
2017-08-01T16:33:35.141Z,3.97
2017-08-01T16:36:10.244Z,3.20
2017-08-01T16:38:44.898Z,3.80
2017-08-01T16:41:19.412Z,4.70
2017-08-01T16:43:53.855Z,3.97
2017-08-01T16:46:28.224Z,4.65
2017-08-01T16:49:02.717Z,4.50
2017-08-01T16:51:36.969Z,4.23
2017-08-01T16:54:11.345Z,3.13
2017-08-01T16:56:45.690Z,4.30
2017-08-01T16:59:20.153Z,9.40
2017-08-01T17:01:54.453Z,3.53
2017-08-01T17:04:28.811Z,4.87
2017-08-01T17:07:03.318Z,4.10
2017-08-01T17:09:37.864Z,3.75
2017-08-01T17:12:12.342Z,3.50
2017-08-01T17:14:47.805Z,4.77
2017-08-01T17:17:22.176Z,4.50
2017-08-01T17:19:56.539Z,3.90
2017-08-01T17:22:30.818Z,4.37
2017-08-01T17:25:05.228Z,4.00
2017-08-01T17:27:39.582Z,6.70
2017-08-01T17:30:15.084Z,3.40
2017-08-01T17:32:50.233Z,3.80
2017-08-01T17:35:24.585Z,4.95
2017-08-01T17:37:59.109Z,5.93
2017-08-01T17:40:33.457Z,4.43
2017-08-01T17:43:07.770Z,7.93
2017-08-01T17:45:42.253Z,12.02
2017-08-01T17:48:16.727Z,3.87
2017-08-01T17:50:51.207Z,7.20
2017-08-01T17:53:25.676Z,7.37
2017-08-01T17:56:00.137Z,8.15
2017-08-01T17:58:34.548Z,5.20
2017-08-01T18:01:09.784Z,3.55
2017-08-01T18:03:44.261Z,5.07
2017-08-01T18:06:18.721Z,3.78
2017-08-01T18:08:53.203Z,4.32
2017-08-01T18:11:27.664Z,4.67
2017-08-01T18:14:02.241Z,6.13
2017-08-01T18:16:37.609Z,3.70
2017-08-01T18:19:14.786Z,4.37
2017-08-01T18:21:49.258Z,4.93
2017-08-01T18:24:23.895Z,5.55
2017-08-01T18:26:58.268Z,5.73
2017-08-01T18:29:32.621Z,4.05
2017-08-01T18:32:06.961Z,4.70
2017-08-01T18:34:41.292Z,6.82
2017-08-01T18:37:15.691Z,12.98
2017-08-01T18:39:50.086Z,5.18
2017-08-01T18:42:24.608Z,7.00
2017-08-01T18:44:59.118Z,4.53
2017-08-01T18:47:33.533Z,6.05
2017-08-01T18:50:07.880Z,5.65
2017-08-01T18:52:42.600Z,5.55
2017-08-01T18:55:17.109Z,7.35
2017-08-01T18:57:52.217Z,5.40
2017-08-01T19:00:26.558Z,4.57
2017-08-01T19:03:01.242Z,6.15
2017-08-01T19:05:36.393Z,5.32
2017-08-01T19:08:11.145Z,4.68
2017-08-01T19:10:46.258Z,5.12
2017-08-01T19:13:21.444Z,4.60
2017-08-01T19:15:56.678Z,5.25
2017-08-01T19:18:31.150Z,4.85
2017-08-01T19:21:05.525Z,5.25
2017-08-01T19:23:40.613Z,7.07
2017-08-01T19:26:15.181Z,8.40
2017-08-01T19:28:50.359Z,4.60
2017-08-01T19:31:24.878Z,5.75
2017-08-01T19:33:59.222Z,5.18
2017-08-01T19:36:33.688Z,6.50
2017-08-01T19:39:08.047Z,5.00
2017-08-01T19:41:43.322Z,6.45
2017-08-01T19:44:17.806Z,4.60
2017-08-01T19:46:52.425Z,7.40
2017-08-01T19:49:26.851Z,4.30
2017-08-01T19:52:01.289Z,4.87
2017-08-01T19:54:35.703Z,5.93
2017-08-01T19:57:10.049Z,5.43
2017-08-01T19:59:44.404Z,5.53
2017-08-01T20:02:19.674Z,7.47
2017-08-01T20:04:53.976Z,6.35
2017-08-01T20:07:28.473Z,6.15
2017-08-01T20:10:02.965Z,4.87
2017-08-01T20:12:38.222Z,5.72
2017-08-01T20:15:12.729Z,9.93
2017-08-01T20:17:47.914Z,5.87
2017-08-01T20:20:22.509Z,6.85
2017-08-01T20:22:56.889Z,5.07
2017-08-01T20:25:31.280Z,5.40
2017-08-01T20:28:06.428Z,6.30
2017-08-01T20:30:40.886Z,5.70
2017-08-01T20:33:15.548Z,5.57
2017-08-01T20:35:50.031Z,5.57
2017-08-01T20:38:24.581Z,12.80
2017-08-01T20:40:59.051Z,5.05
2017-08-01T20:43:33.397Z,6.05
2017-08-01T20:46:07.766Z,5.28
2017-08-01T20:48:43.355Z,5.90
2017-08-01T20:51:17.848Z,5.28
2017-08-01T20:53:52.305Z,5.35
2017-08-01T20:56:26.660Z,7.65
2017-08-01T20:59:01.153Z,6.10
2017-08-01T21:01:35.462Z,6.57
2017-08-01T21:04:09.745Z,6.20
2017-08-01T21:06:44.225Z,6.05
2017-08-01T21:09:18.665Z,5.87
2017-08-01T21:11:53.160Z,5.32
2017-08-01T21:14:28.525Z,6.07
2017-08-01T21:17:02.920Z,5.50
2017-08-01T21:19:37.400Z,6.43
2017-08-01T21:22:11.870Z,5.90
2017-08-01T21:24:46.173Z,7.05
2017-08-01T21:27:20.627Z,8.57
2017-08-01T21:29:55.064Z,6.68
2017-08-01T21:32:29.465Z,6.50
2017-08-01T21:35:03.929Z,7.70
2017-08-01T21:37:38.381Z,6.95
2017-08-01T21:40:13.110Z,7.40
2017-08-01T21:42:47.569Z,8.02
2017-08-01T21:45:21.853Z,9.07
2017-08-01T21:47:56.337Z,8.65
2017-08-01T21:50:30.911Z,8.63
2017-08-01T21:53:05.231Z,9.25
2017-08-01T21:55:39.557Z,7.60
2017-08-01T21:58:13.844Z,14.02
2017-08-01T22:00:48.180Z,8.55
2017-08-01T22:03:22.447Z,11.57
2017-08-01T22:05:57.580Z,9.02
2017-08-01T22:08:31.908Z,8.75
2017-08-01T22:11:06.569Z,9.20
2017-08-01T22:13:41.103Z,10.50
2017-08-01T22:16:15.536Z,8.90
2017-08-01T22:18:50.054Z,9.85
2017-08-01T22:21:24.476Z,9.10
2017-08-01T22:23:58.859Z,9.45
2017-08-01T22:26:33.211Z,9.65
2017-08-01T22:29:07.606Z,9.30
2017-08-01T22:31:43.021Z,9.15
2017-08-01T22:34:17.476Z,11.48
2017-08-01T22:36:51.813Z,11.25
2017-08-01T22:39:26.223Z,11.60
2017-08-01T22:42:00.795Z,12.37
2017-08-01T22:44:35.277Z,13.95
2017-08-01T22:47:09.741Z,13.13
2017-08-01T22:49:44.262Z,11.70
2017-08-01T22:52:18.951Z,12.70
2017-08-01T22:54:54.357Z,11.48
2017-08-01T22:57:28.752Z,12.65
2017-08-01T23:00:03.321Z,17.77
2017-08-01T23:02:37.772Z,12.90
2017-08-01T23:05:12.224Z,13.62
2017-08-01T23:07:46.591Z,13.88
2017-08-01T23:10:21.091Z,13.05
2017-08-01T23:22:08.824Z,15.20
2017-08-01T23:24:43.380Z,10.77
2017-08-01T23:27:17.809Z,11.30
2017-08-01T23:29:52.113Z,11.05
2017-08-01T23:32:26.426Z,12.63
2017-08-01T23:35:00.844Z,12.25
2017-08-01T23:37:35.297Z,12.15
2017-08-01T23:40:09.813Z,11.32
2017-08-01T23:42:44.297Z,10.80
2017-08-01T23:45:18.772Z,11.55
2017-08-01T23:47:53.299Z,10.82
2017-08-01T23:50:27.788Z,11.85
2017-08-01T23:53:02.539Z,14.38
2017-08-01T23:55:36.884Z,14.38
2017-08-01T23:58:11.336Z,12.40
